Terminal Aerodrome Forecast
Issued by NWS

Home | Current Version | Previous Version | Text Only | Print | Product List | Glossary On
Versions: 1 2 3 4 5 6 7 8 9 10 11 12 13 14 15 16
000
FTUS41 KBOX 280538
TAFHYA
TAF
KHYA 280538Z 2806/2906 23008KT P6SM BKN010
     FM281400 28006KT P6SM SCT015
     FM281500 28006KT P6SM SCT250
     FM281700 21006KT P6SM SCT250
     FM290200 12004KT P6SM VCSH BKN080=

USA.gov is the U.S. government's official web portal to all federal, state and local government web resources and services.